Main page
METAR-TAF:

METAR-TAF

Airports :

Salgado Filho International Airport

Porto Alegre, Rio Grande do Sul, Brazil

latitude: 30-00S, longitude: 051-11W, elevation: 3 m

Current weather observation

The report was made 31 minutes ago, at 12:00 UTC
Wind 3 kt from the Northwest, varying between West and North
Temperature 27°C
Humidity 62%
Pressure 1010 hPa
Visibility 10 km or more
Few clouds at a height of 2000 ft
Scattered clouds at a height of 10000 ft

METAR: SBPA 261200Z 32003KT 280V360 9999 FEW020 SCT100 27/19 Q1010

Time: 09:31 (12:31 UTC)

Forecast

The report was made 3 hours and 31 minutes ago, at 09:00 UTC
Forecast valid from 26 at 12 UTC to 27 at 12 UTC
Wind 6 kt from the Northwest
Visibility 10 km or more
no clouds below 1500 m and no cumulonimbus
Becoming
from 26 at 12 UTC to 26 at 14 UTC
Wind 7 kt from the West
Becoming
from 26 at 18 UTC to 26 at 20 UTC
Wind 8 kt from the East/Southeast

TAF: SBPA 260900Z 2612/2712 32006KT CAVOK TX34/2618Z TN24/2708Z BECMG 2612/2614 26007KT BECMG 2618/2620 11008KT RMK PDJ

Weather observations and forecasts of more than 4000 airports (METAR and TAF reports).

The available stations are represented by yellow and red dots on the map.

Hover mouse over dot to see the name of the station.

Then click to see weather observations and forecasts.

To change the map : click on the green buttons with a black cross to zoom in, on the green button with a dash to zoom out, or on the green arrows for adjacent maps.


METAR-TAF: